Time;durP1;ratioP1;P1;durP2;ratioP2;P2;SDS_P1;SDS_P2;PMS_P1;PMS_P2;Temp;Humidity;BMP_temperature;BMP_pressure;BME280_temperature;BME280_humidity;BME280_pressure;Samples;Min_cycle;Max_cycle;Signal;HPM_P1;HPM_P2
2022/12/28 00:00:08;;;;;;;8.63;3.60;;;;;;;;;;5120667;28;20484;-87
2022/12/28 00:02:34;;;;;;;4.60;3.03;;;;;;;;;;5085404;28;20130;-88
2022/12/28 00:05:00;;;;;;;9.20;3.75;;;;;;;;;;5082584;28;20395;-88
2022/12/28 00:07:26;;;;;;;5.75;3.50;;;;;;;;;;5081706;28;20135;-90
2022/12/28 00:09:58;;;;;;;6.57;4.10;;;;;;;;;;5086814;28;20430;-88
2022/12/28 00:12:24;;;;;;;15.02;4.22;;;;;;;;;;5097972;22;20035;-89
2022/12/28 00:14:51;;;;;;;8.18;3.38;;;;;;;;;;5091928;28;20071;-89
2022/12/28 00:20:43;;;;;;;7.45;3.80;;;;;;;;;;5136489;22;20042;-88
2022/12/28 00:23:11;;;;;;;8.07;3.03;;;;;;;;;;5112259;28;20051;-89
2022/12/28 00:25:37;;;;;;;4.50;4.03;;;;;;;;;;5095024;28;20078;-89
2022/12/28 00:31:39;;;;;;;5.22;4.05;;;;;;;;;;5131905;28;20106;-89
2022/12/28 00:34:23;;;;;;;5.68;4.30;;;;;;;;;;5112355;28;20101;-89
2022/12/28 00:36:51;;;;;;;7.25;5.25;;;;;;;;;;5109500;28;20064;-89
2022/12/28 00:39:26;;;;;;;9.88;4.63;;;;;;;;;;5062146;28;20043;-88
2022/12/28 00:45:36;;;;;;;8.02;4.80;;;;;;;;;;5134523;28;20039;-89
2022/12/28 00:48:04;;;;;;;5.75;4.55;;;;;;;;;;5101091;22;20055;-89
2022/12/28 00:50:30;;;;;;;9.07;4.28;;;;;;;;;;5082444;28;20044;-89
2022/12/28 00:52:56;;;;;;;11.30;4.55;;;;;;;;;;5083139;28;20055;-89
2022/12/28 00:55:22;;;;;;;6.95;4.03;;;;;;;;;;5081248;28;20052;-89
2022/12/28 00:57:48;;;;;;;7.68;4.78;;;;;;;;;;5080897;28;20085;-89
2022/12/28 01:00:21;;;;;;;11.13;5.03;;;;;;;;;;5083176;28;20046;-89
2022/12/28 01:02:49;;;;;;;12.90;4.68;;;;;;;;;;5098959;28;20516;-89
2022/12/28 01:05:16;;;;;;;6.43;4.97;;;;;;;;;;5082253;28;20048;-89
2022/12/28 01:07:45;;;;;;;8.75;4.00;;;;;;;;;;5082917;28;20044;-89
2022/12/28 01:10:11;;;;;;;7.47;4.95;;;;;;;;;;5065983;28;20043;-89
2022/12/28 01:12:37;;;;;;;8.60;5.40;;;;;;;;;;5066209;28;20043;-90
2022/12/28 01:15:15;;;;;;;11.93;4.70;;;;;;;;;;5102449;28;20086;-90
2022/12/28 01:17:49;;;;;;;10.00;4.72;;;;;;;;;;5084475;28;20047;-90
2022/12/28 01:20:16;;;;;;;9.25;6.40;;;;;;;;;;5101444;28;20063;-90
2022/12/28 01:22:42;;;;;;;12.43;5.20;;;;;;;;;;5069064;28;20056;-90
2022/12/28 01:25:09;;;;;;;9.88;4.80;;;;;;;;;;5085779;28;20492;-90
2022/12/28 01:27:35;;;;;;;8.95;5.32;;;;;;;;;;5102633;28;20564;-90
2022/12/28 01:30:01;;;;;;;7.35;4.82;;;;;;;;;;5087880;28;20381;-90
2022/12/28 01:32:27;;;;;;;7.53;3.92;;;;;;;;;;5090872;28;20070;-89
2022/12/28 01:34:53;;;;;;;9.25;4.65;;;;;;;;;;5093079;28;20040;-89
2022/12/28 01:37:19;;;;;;;7.32;5.22;;;;;;;;;;5078343;28;20047;-89
2022/12/28 01:39:45;;;;;;;7.15;4.32;;;;;;;;;;5082272;28;20138;-91
2022/12/28 01:42:18;;;;;;;9.18;4.50;;;;;;;;;;5081985;28;20503;-90
2022/12/28 01:44:46;;;;;;;7.38;4.68;;;;;;;;;;5082508;28;20052;-90
2022/12/28 01:47:28;;;;;;;6.78;4.57;;;;;;;;;;5081956;28;20461;-89
2022/12/28 01:50:02;;;;;;;9.63;5.30;;;;;;;;;;5081732;28;20047;-90
2022/12/28 01:52:32;;;;;;;8.45;4.90;;;;;;;;;;5098882;28;20062;-90
2022/12/28 01:55:13;;;;;;;7.60;4.97;;;;;;;;;;5098803;28;20087;-89
2022/12/28 01:57:42;;;;;;;4.93;4.18;;;;;;;;;;5081911;28;20105;-89
2022/12/28 02:00:12;;;;;;;6.82;5.05;;;;;;;;;;5098945;28;20047;-90
2022/12/28 02:02:40;;;;;;;10.15;5.43;;;;;;;;;;5081652;28;20054;-90
2022/12/28 02:05:07;;;;;;;8.63;5.18;;;;;;;;;;5098686;28;20051;-90
2022/12/28 02:07:39;;;;;;;6.30;5.60;;;;;;;;;;5098726;28;20503;-92
2022/12/28 02:10:06;;;;;;;5.95;4.05;;;;;;;;;;5117148;28;20051;-91
2022/12/28 02:12:32;;;;;;;7.50;5.65;;;;;;;;;;5098919;28;20051;-92
2022/12/28 02:14:58;;;;;;;9.05;5.22;;;;;;;;;;5064896;28;20142;-91
2022/12/28 02:17:24;;;;;;;7.25;5.38;;;;;;;;;;5098563;28;20097;-90
2022/12/28 02:19:50;;;;;;;8.65;4.88;;;;;;;;;;5064915;28;20051;-88
2022/12/28 02:22:44;;;;;;;16.42;5.53;;;6.30;99.90;;;;;;5098430;28;20073;-90
2022/12/28 02:25:28;;;;;;;8.75;6.30;;;;;;;;;;5081526;28;20048;-88
2022/12/28 02:28:04;;;;;;;5.60;4.68;;;;;;;;;;5081249;28;20047;-89
2022/12/28 02:30:32;;;;;;;7.25;4.35;;;;;;;;;;5081242;28;20086;-89
2022/12/28 02:33:19;;;;;;;8.45;5.00;;;;;;;;;;5081420;28;20058;-88
2022/12/28 02:35:45;;;;;;;10.88;5.55;;;;;;;;;;5081173;28;20104;-88
2022/12/28 02:38:30;;;;;;;9.95;5.70;;;6.20;99.90;;;;;;5081389;28;20055;-88
2022/12/28 02:40:56;;;;;;;;;;;;;;;;;;5081339;28;20510;-89
2022/12/28 02:43:22;;;;;;;6.82;5.30;;;;;;;;;;5079941;28;19920;-88
2022/12/28 02:51:31;;;;;;;10.13;5.47;;;;;;;;;;5097512;28;20519;-89
2022/12/28 02:54:03;;;;;;;6.93;5.50;;;;;;;;;;5081059;28;20051;-88
2022/12/28 02:56:32;;;;;;;7.90;5.57;;;;;;;;;;5081059;28;20048;-90
2022/12/28 02:59:07;;;;;;;11.73;5.75;;;;;;;;;;5081106;28;20062;-89
2022/12/28 03:01:59;;;;;;;5.75;4.63;;;;;;;;;;5080701;28;20058;-90
2022/12/28 03:04:43;;;;;;;6.95;4.80;;;;;;;;;;5080909;28;20546;-89
2022/12/28 03:10:10;;;;;;;10.30;5.63;;;;;;;;;;5097223;28;20051;-90
2022/12/28 03:12:40;;;;;;;8.43;4.43;;;;;;;;;;5097489;28;20063;-89
2022/12/28 03:15:12;;;;;;;11.93;6.80;;;;;;;;;;5080690;28;20043;-90
2022/12/28 03:31:29;;;;;;;12.15;5.13;;;;;;;;;;5082806;28;20139;-89
2022/12/28 03:34:08;;;;;;;5.22;4.45;;;;;;;;;;5097291;28;20047;-88
2022/12/28 03:36:34;;;;;;;5.85;5.22;;;;;;;;;;5097069;28;20051;-88
2022/12/28 03:39:03;;;;;;;5.78;4.75;;;;;;;;;;5096937;28;20141;-89
2022/12/28 03:41:42;;;;;;;6.47;4.82;;;;;;;;;;5079817;28;20051;-88
2022/12/28 03:44:15;;;;;;;7.15;6.07;;;;;;;;;;5097046;28;20491;-90
2022/12/28 03:47:09;;;;;;;9.98;5.45;;;6.70;99.90;;;;;;5079973;28;20502;-89
2022/12/28 03:49:35;;;;;;;;;;;6.60;99.90;;;;;;5077409;28;20533;-87
2022/12/28 03:52:02;;;;;;;5.55;4.95;;;;;;;;;;5096660;28;19920;-88
2022/12/28 03:54:28;;;;;;;12.68;4.57;;;;;;;;;;5079238;28;20564;-89
2022/12/28 03:56:54;;;;;;;6.07;5.50;;;;;;;;;;5063084;28;20069;-90
2022/12/28 03:59:20;;;;;;;7.15;4.97;;;;;;;;;;5080234;28;20474;-90
2022/12/28 04:01:46;;;;;;;4.43;4.03;;;;;;;;;;5079388;28;20047;-89
2022/12/28 04:04:12;;;;;;;5.53;4.88;;;;;;;;;;5079417;28;20055;-90
2022/12/28 04:06:38;;;;;;;5.03;4.47;;;;;;;;;;5114720;28;20052;-87
2022/12/28 04:09:05;;;;;;;7.97;5.28;;;;;;;;;;5079575;28;20055;-89
2022/12/28 04:11:31;;;;;;;7.50;5.28;;;;;;;;;;5062791;28;20094;-87
2022/12/28 04:13:57;;;;;;;7.35;5.78;;;;;;;;;;5096198;28;20047;-91
2022/12/28 04:16:23;;;;;;;6.45;5.10;;;;;;;;;;5079500;28;20052;-90
2022/12/28 04:18:49;;;;;;;8.27;5.53;;;;;;;;;;5062577;28;20784;-89
2022/12/28 04:21:15;;;;;;;4.40;4.00;;;;;;;;;;5063149;28;20441;-91
2022/12/28 04:23:42;;;;;;;5.05;4.55;;;;;;;;;;5096118;28;20139;-91
2022/12/28 04:26:10;;;;;;;9.88;5.53;;;;;;;;;;5096219;28;20048;-91
2022/12/28 04:28:37;;;;;;;5.97;4.45;;;;;;;;;;5096118;28;20055;-89
2022/12/28 04:31:04;;;;;;;10.30;6.97;;;;;;;;;;5095919;28;20051;-92
2022/12/28 04:33:33;;;;;;;5.50;4.28;;;;;;;;;;5078982;28;20135;-90
2022/12/28 04:36:26;;;;;;;8.35;5.70;;;;;;;;;;5078944;28;20051;-87
2022/12/28 04:38:52;;;;;;;5.28;4.78;;;;;;;;;;5076028;28;20093;-91
2022/12/28 04:41:18;;;;;;;7.07;5.28;;;;;;;;;;5095679;28;20061;-91
2022/12/28 04:43:44;;;;;;;7.55;5.07;;;;;;;;;;5095736;28;20083;-88
2022/12/28 04:46:11;;;;;;;7.93;4.90;;;;;;;;;;5095999;28;20403;-87
2022/12/28 04:48:38;;;;;;;5.90;5.20;;;;;;;;;;5078777;28;20400;-88
2022/12/28 04:51:23;;;;;;;7.13;6.07;;;;;;;;;;5079372;28;20452;-90
2022/12/28 04:53:50;;;;;;;4.90;4.38;;;;;;;;;;5079139;28;20241;-91
2022/12/28 04:56:16;;;;;;;6.50;5.65;;;;;;;;;;5062619;28;20047;-91
2022/12/28 04:58:42;;;;;;;7.35;6.40;;;;;;;;;;5079273;28;20044;-91
2022/12/28 05:01:11;;;;;;;7.50;5.68;;;7.00;99.90;;;;;;5078709;28;20526;-89
2022/12/28 05:03:38;;;;;;;4.18;3.85;;;;;;;;;;5078978;28;20047;-91
2022/12/28 05:06:06;;;;;;;8.02;5.95;;;;;;;;;;5096170;28;20063;-90
2022/12/28 05:08:32;;;;;;;7.28;6.00;;;;;;;;;;5099681;28;20056;-90
2022/12/28 05:10:59;;;;;;;7.55;6.45;;;;;;;;;;5099779;28;20063;-92
2022/12/28 05:13:25;;;;;;;8.68;5.93;;;;;;;;;;5099881;28;20082;-91
2022/12/28 05:15:51;;;;;;;7.10;5.70;;;;;;;;;;5082891;28;20063;-92
2022/12/28 05:18:17;;;;;;;7.25;5.75;;;;;;;;;;5082882;28;20079;-92
2022/12/28 05:20:43;;;;;;;9.43;7.50;;;;;;;;;;5066541;28;20048;-86
2022/12/28 05:23:09;;;;;;;9.23;6.68;;;;;;;;;;5099451;28;20047;-90
2022/12/28 05:25:35;;;;;;;6.13;5.53;;;;;;;;;;5082341;28;20129;-88
2022/12/28 05:28:02;;;;;;;8.32;6.78;;;;;;;;;;5065795;28;20075;-87
2022/12/28 05:30:28;;;;;;;9.98;7.10;;;;;;;;;;5082356;28;20469;-86
2022/12/28 05:32:54;;;;;;;7.45;6.70;;;;;;;;;;5065959;28;20376;-87
2022/12/28 05:35:20;;;;;;;14.02;7.90;;;;;;;;;;5065917;28;20044;-85
2022/12/28 05:37:46;;;;;;;8.57;7.18;;;;;;;;;;5098902;28;20052;-87
2022/12/28 05:40:12;;;;;;;11.18;8.07;;;;;;;;;;5065462;28;20051;-86
2022/12/28 05:42:38;;;;;;;8.55;7.30;;;;;;;;;;5082002;28;20116;-86
2022/12/28 05:45:04;;;;;;;6.93;6.22;;;;;;;;;;5082275;28;20062;-86
2022/12/28 05:47:30;;;;;;;8.23;7.28;;;;;;;;;;5081898;28;20052;-87
2022/12/28 05:49:56;;;;;;;6.88;6.18;;;;;;;;;;5098528;28;20079;-88
2022/12/28 05:52:22;;;;;;;10.27;6.45;;;;;;;;;;5082017;28;20051;-85
2022/12/28 05:54:48;;;;;;;6.97;5.78;;;;;;;;;;5065036;28;20112;-87
2022/12/28 05:57:14;;;;;;;7.85;6.68;;;;;;;;;;5081790;28;20044;-87
2022/12/28 05:59:40;;;;;;;9.23;5.90;;;;;;;;;;5098534;28;20047;-88
2022/12/28 06:02:06;;;;;;;8.88;6.45;;;;;;;;;;5065132;28;20135;-86
2022/12/28 06:04:32;;;;;;;9.93;6.68;;;;;;;;;;5081729;28;20051;-86
2022/12/28 06:06:58;;;;;;;9.05;6.22;;;;;;;;;;5081452;28;20093;-89
2022/12/28 06:09:24;;;;;;;11.95;8.50;;;;;;;;;;5098429;28;20055;-89
2022/12/28 06:11:50;;;;;;;7.45;5.85;;;;;;;;;;5064890;28;20047;-89
2022/12/28 06:14:16;;;;;;;9.55;6.32;;;;;;;;;;5098289;28;20082;-89
2022/12/28 06:16:43;;;;;;;11.55;6.60;;;;;;;;;;5064823;28;20063;-86
2022/12/28 06:19:11;;;;;;;8.63;6.80;;;8.00;99.90;;;;;;5064722;28;20043;-86
2022/12/28 06:21:38;;;;;;;10.50;6.72;;;8.30;99.90;;;;;;5098144;28;20047;-86
2022/12/28 06:24:05;;;;;;;7.72;6.75;;;;;;;;;;5081207;28;20056;-86
2022/12/28 06:26:32;;;;;;;9.38;6.95;;;;;;;;;;5098611;28;20047;-87
2022/12/28 06:29:00;;;;;;;7.03;6.22;;;;;;;;;;5080983;28;20052;-89
2022/12/28 06:31:28;;;;;;;5.32;4.60;;;8.20;99.90;;;;;;5081020;28;20039;-86
2022/12/28 06:33:56;;;;;;;7.50;6.80;;;8.20;99.90;;;;;;5097859;28;20044;-86
2022/12/28 06:36:23;;;;;;;8.05;6.43;;;;;;;;;;5098094;28;20056;-86
2022/12/28 06:38:50;;;;;;;8.75;6.55;;;;;;;;;;5080914;28;20534;-86
2022/12/28 06:41:17;;;;;;;7.97;5.97;;;;;;;;;;5081213;28;20108;-86
2022/12/28 06:43:44;;;;;;;7.75;6.13;;;8.30;99.90;;;;;;5080774;28;20511;-86
2022/12/28 06:46:10;;;;;;;10.13;5.93;;;;;;;;;;5080774;28;20415;-88
2022/12/28 06:48:37;;;;;;;7.53;6.72;;;;;;;;;;5080816;28;20517;-86
2022/12/28 06:51:04;;;;;;;8.75;6.85;;;;;;;;;;5080825;28;20055;-88
2022/12/28 06:53:33;;;;;;;8.93;6.85;;;8.20;99.90;;;;;;5097558;28;20059;-90
2022/12/28 06:56:20;;;;;;;9.77;6.50;;;8.50;99.90;;;;;;5081047;28;20106;-89
2022/12/28 06:58:48;;;;;;;6.22;5.55;;;8.50;99.90;;;;;;5097436;28;20107;-88
2022/12/28 07:01:16;;;;;;;6.95;6.25;;;;;;;;;;5063977;28;20407;-88
2022/12/28 07:03:43;;;;;;;9.20;6.22;;;;;;;;;;5080732;28;20043;-88
2022/12/28 07:06:09;;;;;;;8.75;6.07;;;;;;;;;;5097378;28;20051;-89
2022/12/28 07:08:36;;;;;;;7.72;5.85;;;;;;;;;;5064338;28;20090;-89
2022/12/28 07:11:10;;;;;;;5.03;4.53;;;8.20;99.90;;;;;;5080418;28;20044;-89
2022/12/28 07:13:36;;;;;;;6.55;5.85;;;;;;;;;;5097186;28;20535;-89
2022/12/28 07:16:16;;;;;;;9.30;6.47;;;;;;;;;;5080334;28;20055;-88
2022/12/28 07:18:42;;;;;;;8.13;6.40;;;;;;;;;;5097356;28;20052;-90
2022/12/28 07:21:14;;;;;;;8.00;5.95;;;8.30;99.90;;;;;;5080356;28;20086;-91
2022/12/28 07:23:41;;;;;;;9.85;6.82;;;;;;;;;;5080379;28;20055;-91
2022/12/28 07:26:11;;;;;;;12.93;6.97;;;;;;;;;;5080647;28;20039;-89
2022/12/28 07:28:42;;;;;;;12.00;7.95;;;;;;;;;;5079673;28;20488;-88
2022/12/28 07:31:13;;;;;;;8.32;6.88;;;8.50;99.90;;;;;;5096936;28;20124;-89
2022/12/28 07:33:39;;;;;;;7.63;5.82;;;;;;;;;;5080204;28;20051;-90
2022/12/28 07:36:07;;;;;;;12.32;7.13;;;;;;;;;;5063598;28;20461;-90
2022/12/28 07:38:33;;;;;;;6.13;5.22;;;;;;;;;;5097302;28;20052;-90
2022/12/28 07:41:17;;;;;;;9.65;6.88;;;8.60;99.90;;;;;;5079799;28;20059;-91
2022/12/28 07:43:43;;;;;;;10.93;7.25;;;;;;;;;;5079809;28;20044;-91
2022/12/28 07:46:12;;;;;;;10.05;6.63;;;8.60;99.90;;;;;;5096627;28;20054;-90
2022/12/28 07:48:39;;;;;;;14.07;7.32;;;8.40;99.90;;;;;;5096237;28;20104;-87
2022/12/28 07:51:11;;;;;;;12.30;6.75;;;8.60;99.90;;;;;;5063381;28;20051;-88
2022/12/28 07:53:37;;;;;;;11.60;6.57;;;;;;;;;;5096720;28;20047;-89
2022/12/28 07:56:04;;;;;;;18.63;6.60;;;;;;;;;;5079617;28;20079;-89
2022/12/28 07:58:30;;;;;;;9.15;7.28;;;;;;;;;;5079751;28;20479;-90
2022/12/28 08:01:05;;;;;;;7.75;4.93;;;;;;;;;;5096092;28;20120;-88
2022/12/28 08:03:31;;;;;;;10.45;6.18;;;;;;;;;;5096466;28;20402;-87
2022/12/28 08:06:23;;;;;;;12.45;5.07;;;;;;;;;;5062995;28;20040;-89
2022/12/28 08:08:51;;;;;;;10.52;6.57;;;;;;;;;;5076435;28;20058;-90
2022/12/28 08:11:20;;;;;;;9.98;6.38;;;;;;;;;;5095945;28;20108;-87
2022/12/28 08:13:47;;;;;;;20.80;7.43;;;9.00;99.90;;;;;;5096029;28;20062;-89
2022/12/28 08:16:16;;;;;;;5.63;5.07;;;8.70;99.90;;;;;;5096043;28;20565;-90
2022/12/28 08:18:42;;;;;;;10.68;6.15;;;;;;;;;;5079393;28;20492;-91
2022/12/28 08:21:11;;;;;;;9.65;6.32;;;;;;;;;;5062841;28;20070;-89
2022/12/28 08:23:37;;;;;;;9.85;6.68;;;;;;;;;;5095892;28;20047;-89
2022/12/28 08:26:06;;;;;;;9.50;5.72;;;;;;;;;;5095876;28;20056;-91
2022/12/28 08:28:32;;;;;;;8.80;6.43;;;;;;;;;;5079378;28;20550;-87
2022/12/28 08:31:03;;;;;;;10.10;6.88;;;;;;;;;;5079109;28;20113;-87
2022/12/28 08:33:29;;;;;;;10.77;6.68;;;;;;;;;;5078670;28;20055;-89
2022/12/28 08:35:56;;;;;;;11.30;7.63;;;;;;;;;;5078810;28;20059;-87
2022/12/28 08:38:22;;;;;;;8.98;6.60;;;;;;;;;;5078819;28;20094;-88
2022/12/28 08:40:55;;;;;;;7.10;6.05;;;;;;;;;;5077861;28;20043;-87
2022/12/28 08:43:21;;;;;;;8.73;7.18;;;;;;;;;;5078990;28;20044;-88
2022/12/28 08:46:01;;;;;;;8.65;6.68;;;;;;;;;;5061997;28;20050;-89
2022/12/28 08:48:27;;;;;;;6.45;5.78;;;;;;;;;;5078589;28;20403;-86
2022/12/28 08:50:54;;;;;;;8.23;6.50;;;;;;;;;;5062013;28;20047;-88
2022/12/28 08:53:23;;;;;;;7.40;6.40;;;;;;;;;;5062771;28;20448;-87
2022/12/28 08:55:50;;;;;;;6.50;5.88;;;;;;;;;;5078859;28;20097;-89
2022/12/28 08:58:16;;;;;;;11.25;6.55;;;;;;;;;;5095660;28;20051;-88
2022/12/28 09:00:42;;;;;;;7.80;4.60;;;;;;;;;;5096251;28;20454;-88
2022/12/28 09:03:08;;;;;;;4.95;4.18;;;;;;;;;;5096114;28;20048;-87
2022/12/28 09:05:38;;;;;;;5.13;4.10;;;;;;;;;;5096173;28;20495;-88
2022/12/28 09:08:04;;;;;;;6.13;4.80;;;;;;;;;;5078890;28;20128;-89
2022/12/28 09:10:30;;;;;;;3.80;3.40;;;;;;;;;;5079035;28;20071;-87
2022/12/28 09:12:56;;;;;;;4.30;3.63;;;;;;;;;;5113585;28;20529;-88
2022/12/28 09:15:23;;;;;;;3.53;2.90;;;;;;;;;;5078591;28;20461;-86
2022/12/28 09:17:49;;;;;;;2.67;2.47;;;;;;;;;;5113810;28;20121;-90
2022/12/28 09:20:15;;;;;;;3.40;3.10;;;;;;;;;;5078714;28;20054;-87
2022/12/28 09:22:41;;;;;;;4.65;3.67;;;;;;;;;;5113851;28;20047;-87
2022/12/28 09:25:07;;;;;;;4.05;3.33;;;;;;;;;;5095778;28;20051;-88
2022/12/28 09:27:33;;;;;;;5.57;3.42;;;;;;;;;;5113842;28;20047;-89
2022/12/28 09:29:59;;;;;;;3.58;3.28;;;;;;;;;;5095605;28;20091;-88
2022/12/28 09:32:25;;;;;;;4.57;3.10;;;;;;;;;;5095684;28;20055;-90
2022/12/28 09:34:51;;;;;;;5.22;4.13;;;;;;;;;;5078372;28;20048;-90
2022/12/28 09:37:18;;;;;;;6.13;3.80;;;;;;;;;;5113961;28;20134;-89
2022/12/28 09:39:44;;;;;;;3.42;3.13;;;;;;;;;;5078674;28;20177;-89
2022/12/28 09:42:23;;;;;;;3.05;2.75;;;;;;;;;;5113530;28;20054;-89
2022/12/28 09:45:06;;;;;;;3.10;2.80;;;;;;;;;;5095697;28;20048;-88
2022/12/28 09:47:46;;;;;;;4.57;3.80;;;;;;;;;;5113674;28;20044;-89
2022/12/28 09:50:18;;;;;;;4.97;3.47;;;;;;;;;;5078371;28;20048;-89
2022/12/28 09:52:59;;;;;;;4.25;2.90;;;;;;;;;;5114661;28;20056;-89
2022/12/28 09:55:25;;;;;;;3.22;2.72;;;;;;;;;;5117104;28;20074;-90
2022/12/28 09:57:54;;;;;;;3.40;2.90;;;;;;;;;;5082046;28;20059;-89
2022/12/28 10:00:22;;;;;;;4.63;2.50;;;;;;;;;;5116888;28;20047;-88
2022/12/28 10:02:56;;;;;;;2.97;2.58;;;;;;;;;;5116987;28;20054;-89
2022/12/28 10:05:21;;;;;;;;;;;9.00;99.90;;;;;;5099319;28;20051;-89
2022/12/28 10:07:48;;;;;;;2.58;2.30;;;;;;;;;;5082062;28;20296;-89
2022/12/28 10:10:16;;;;;;;2.53;2.25;;;;;;;;;;5116798;28;20051;-89
2022/12/28 10:12:43;;;;;;;2.00;1.90;;;;;;;;;;5098470;28;20101;-90
2022/12/28 10:15:13;;;;;;;2.85;2.10;;;;;;;;;;5116399;28;20547;-89
2022/12/28 10:17:39;;;;;;;2.33;2.13;;;;;;;;;;5064668;28;20460;-90
2022/12/28 10:20:08;;;;;;;2.40;2.20;;;;;;;;;;5098593;28;20126;-87
2022/12/28 10:22:39;;;;;;;3.90;2.92;;;;;;;;;;5099024;28;20052;-89
2022/12/28 10:25:13;;;;;;;2.40;2.20;;;;;;;;;;5116343;28;20131;-89
2022/12/28 10:27:39;;;;;;;2.35;2.15;;;;;;;;;;5081363;28;20052;-89
2022/12/28 10:30:10;;;;;;;2.58;2.38;;;;;;;;;;5081069;28;20562;-89
2022/12/28 10:32:47;;;;;;;2.70;2.50;;;;;;;;;;5081690;28;20050;-88
2022/12/28 10:35:21;;;;;;;4.05;3.05;;;;;;;;;;5098681;28;20052;-88
2022/12/28 10:37:47;;;;;;;;;;;8.70;99.90;;;;;;5099178;28;20116;-87
2022/12/28 10:40:27;;;;;;;3.80;2.80;;;;;;;;;;5116476;28;19916;-87
2022/12/28 10:42:54;;;;;;;5.40;4.43;;;;;;;;;;5081171;28;20411;-86
2022/12/28 10:45:40;;;;;;;4.70;3.83;;;;;;;;;;5080824;28;20051;-89
2022/12/28 10:48:13;;;;;;;6.22;4.25;;;;;;;;;;5115690;28;20450;-88
2022/12/28 10:50:41;;;;;;;7.03;4.78;;;;;;;;;;5097422;28;20130;-88
2022/12/28 10:53:15;;;;;;;6.30;4.00;;;;;;;;;;5116077;28;20054;-88
2022/12/28 10:55:42;;;;;;;6.30;5.68;;;;;;;;;;5081096;28;20051;-88
2022/12/28 10:58:15;;;;;;;9.13;5.88;;;;;;;;;;5097904;28;20100;-88
2022/12/28 11:00:42;;;;;;;8.75;6.30;;;;;;;;;;5115883;28;20043;-88
2022/12/28 11:03:17;;;;;;;7.00;5.90;;;;;;;;;;5080600;28;20071;-86
2022/12/28 11:05:43;;;;;;;7.75;6.57;;;;;;;;;;5080326;28;20487;-86
2022/12/28 11:08:13;;;;;;;7.65;5.60;;;;;;;;;;5115793;28;20048;-85
2022/12/28 11:10:39;;;;;;;6.45;5.30;;;;;;;;;;5081096;28;20047;-86
2022/12/28 11:13:14;;;;;;;6.18;5.05;;;;;;;;;;5115898;28;20387;-86
2022/12/28 11:15:40;;;;;;;5.10;4.57;;;;;;;;;;5080249;28;20048;-86
2022/12/28 11:18:19;;;;;;;5.35;4.72;;;;;;;;;;5097090;28;20576;-86
2022/12/28 11:20:46;;;;;;;4.80;4.32;;;;;;;;;;5115288;28;20122;-87
2022/12/28 11:23:20;;;;;;;4.82;3.95;;;;;;;;;;5097034;28;20051;-86
2022/12/28 11:25:46;;;;;;;;;;;9.20;99.90;;;;;;5115583;28;20599;-86
2022/12/28 11:28:17;;;;;;;4.38;3.65;;;;;;;;;;5115504;28;19967;-87
2022/12/28 11:30:44;;;;;;;3.50;2.78;;;;;;;;;;5115287;28;20043;-86
2022/12/28 11:33:28;;;;;;;3.53;3.22;;;;;;;;;;5080282;28;20055;-86
2022/12/28 11:35:54;;;;;;;;;;;9.10;99.90;;;;;;5097434;28;20047;-86
2022/12/28 11:38:38;;;;;;;3.45;3.15;;;;;;;;;;5115222;28;20022;-86
2022/12/28 11:41:04;;;;;;;3.70;3.33;;;;;;;;;;5080474;28;20055;-86
2022/12/28 11:43:31;;;;;;;6.13;3.40;;;;;;;;;;5115254;28;20051;-86
2022/12/28 11:46:02;;;;;;;3.65;2.92;;;;;;;;;;5114810;28;20135;-89
2022/12/28 11:48:37;;;;;;;4.30;3.55;;;;;;;;;;5115118;28;20059;-88
2022/12/28 11:51:04;;;;;;;6.25;3.10;;;;;;;;;;5114547;28;20484;-88
2022/12/28 11:53:33;;;;;;;5.05;3.42;;;;;;;;;;5079674;28;20407;-89
2022/12/28 11:56:04;;;;;;;3.38;3.10;;;;;;;;;;5096339;28;20385;-89
2022/12/28 11:58:30;;;;;;;3.50;2.67;;;;;;;;;;5096982;28;20040;-90
2022/12/28 12:00:58;;;;;;;5.82;2.58;;;;;;;;;;5096755;28;20525;-91
2022/12/28 12:03:58;;;;;;;3.38;3.08;;;9.20;99.90;;;;;;5114946;28;20054;-90
2022/12/28 12:06:42;;;;;;;2.63;2.42;;;;;;;;;;5079464;28;20108;-88
2022/12/28 12:09:21;;;;;;;3.10;2.80;;;;;;;;;;5096751;28;20044;-91
2022/12/28 12:11:54;;;;;;;4.05;3.30;;;;;;;;;;5096307;28;20579;-89
2022/12/28 12:14:25;;;;;;;4.10;3.20;;;;;;;;;;5079760;28;20040;-90
2022/12/28 12:16:53;;;;;;;3.95;3.50;;;;;;;;;;5096426;28;20135;-90
2022/12/28 12:19:28;;;;;;;4.93;3.90;;;;;;;;;;5080184;28;20047;-89
2022/12/28 12:22:09;;;;;;;4.22;3.83;;;;;;;;;;5096359;28;20059;-89
2022/12/28 12:24:42;;;;;;;4.10;3.75;;;;;;;;;;5096380;28;20521;-86
2022/12/28 12:27:16;;;;;;;4.93;4.05;;;;;;;;;;5079475;28;20043;-86
2022/12/28 12:29:52;;;;;;;4.05;3.65;;;;;;;;;;5080582;28;20368;-90
2022/12/28 12:32:18;;;;;;;6.50;4.35;;;;;;;;;;5115078;28;20047;-90
2022/12/28 12:34:46;;;;;;;5.35;3.70;;;;;;;;;;5095949;28;20047;-89
2022/12/28 12:37:12;;;;;;;3.85;3.20;;;;;;;;;;5079568;28;20450;-85
2022/12/28 12:39:59;;;;;;;4.28;3.78;;;;;;;;;;5079878;28;20079;-87
2022/12/28 12:42:44;;;;;;;3.63;3.33;;;9.20;99.90;;;;;;5079269;28;20131;-85
2022/12/28 12:45:36;;;;;;;3.17;2.88;;;9.10;99.90;;;;;;5079101;28;20411;-85
2022/12/28 12:48:05;;;;;;;4.50;3.90;;;;;;;;;;5095939;28;20506;-90
2022/12/28 12:50:36;;;;;;;4.18;3.65;;;;;;;;;;5078639;28;20052;-87
2022/12/28 12:53:14;;;;;;;3.45;3.08;;;;;;;;;;5114135;28;20055;-85
2022/12/28 12:55:40;;;;;;;5.28;3.38;;;;;;;;;;5078788;28;20098;-89
2022/12/28 12:58:18;;;;;;;2.90;2.60;;;;;;;;;;5095579;28;20043;-91
2022/12/28 13:00:49;;;;;;;2.80;2.45;;;;;;;;;;5096186;28;20070;-90
2022/12/28 13:03:18;;;;;;;3.13;2.85;;;;;;;;;;5079034;28;20043;-88
2022/12/28 13:05:47;;;;;;;3.03;2.83;;;;;;;;;;5079370;28;20039;-90
2022/12/28 13:08:24;;;;;;;4.38;2.92;;;;;;;;;;5079288;28;20472;-89
2022/12/28 13:10:51;;;;;;;3.40;3.10;;;;;;;;;;5079568;28;20052;-89
2022/12/28 13:13:19;;;;;;;3.20;2.90;;;;;;;;;;5062276;28;20048;-88
2022/12/28 13:15:45;;;;;;;2.50;2.30;;;;;;;;;;5096186;28;20055;-88
2022/12/28 13:18:18;;;;;;;3.15;2.85;;;;;;;;;;5062246;28;20047;-89
2022/12/28 13:20:53;;;;;;;2.83;2.55;;;;;;;;;;5078865;28;20047;-86
2022/12/28 13:23:22;;;;;;;2.67;2.47;;;9.00;99.90;;;;;;5095513;28;20046;-85
2022/12/28 13:25:49;;;;;;;2.30;2.10;;;;;;;;;;5078791;28;20052;-88
2022/12/28 13:28:42;;;;;;;2.72;2.53;;;;;;;;;;5081343;28;20043;-88
2022/12/28 13:31:12;;;;;;;3.20;2.80;;;;;;;;;;5052299;28;20411;-87
2022/12/28 13:33:38;;;;;;;2.38;2.10;;;;;;;;;;5082325;28;20043;-88
2022/12/28 13:36:19;;;;;;;1.83;1.73;;;;;;;;;;5065995;28;20047;-89
2022/12/28 13:38:45;;;;;;;2.60;2.40;;;;;;;;;;5082276;28;20044;-87
2022/12/28 13:41:19;;;;;;;3.00;2.38;;;;;;;;;;5065981;28;20056;-89
2022/12/28 13:43:57;;;;;;;3.05;2.75;;;;;;;;;;5083038;28;20044;-87
2022/12/28 13:46:24;;;;;;;4.55;2.50;;;;;;;;;;5082129;28;20048;-87
2022/12/28 13:48:52;;;;;;;2.47;2.28;;;;;;;;;;5117380;28;20140;-87
2022/12/28 13:51:19;;;;;;;2.50;2.30;;;;;;;;;;5099412;28;20134;-86
2022/12/28 13:53:48;;;;;;;4.47;4.05;;;;;;;;;;5099057;28;20055;-87
2022/12/28 13:56:16;;;;;;;1.90;1.67;;;;;;;;;;5117561;28;20058;-87
2022/12/28 13:58:47;;;;;;;3.10;1.83;;;;;;;;;;5099148;28;20055;-86
2022/12/28 14:01:16;;;;;;;2.95;1.85;;;;;;;;;;5117022;28;20043;-89
2022/12/28 14:03:42;;;;;;;2.30;1.98;;;;;;;;;;5099528;28;20052;-87
2022/12/28 14:06:09;;;;;;;2.85;2.63;;;;;;;;;;5099148;28;20086;-86
2022/12/28 14:08:36;;;;;;;1.98;1.70;;;;;;;;;;5117130;28;20055;-88
2022/12/28 14:11:03;;;;;;;3.47;1.90;;;;;;;;;;5082120;28;20052;-87
2022/12/28 14:13:31;;;;;;;2.17;1.77;;;;;;;;;;5117094;28;20048;-87
2022/12/28 14:15:57;;;;;;;3.50;2.05;;;;;;;;;;5082552;28;20051;-88
2022/12/28 14:18:23;;;;;;;3.13;2.10;;;;;;;;;;5098512;28;20047;-86
2022/12/28 14:20:51;;;;;;;3.70;2.30;;;;;;;;;;5099088;28;20039;-87
2022/12/28 14:23:21;;;;;;;3.47;2.70;;;;;;;;;;5116527;28;20436;-87
2022/12/28 14:25:47;;;;;;;5.30;3.03;;;;;;;;;;5098866;28;20499;-87
2022/12/28 14:28:17;;;;;;;5.80;2.92;;;;;;;;;;5116791;28;20056;-87
2022/12/28 14:30:50;;;;;;;4.93;3.00;;;;;;;;;;5081654;28;20055;-89
2022/12/28 14:33:20;;;;;;;4.00;2.58;;;;;;;;;;5116755;28;20052;-87
2022/12/28 14:35:48;;;;;;;5.18;3.60;;;;;;;;;;5081761;28;20055;-88
2022/12/28 14:38:18;;;;;;;4.93;2.80;;;;;;;;;;5116232;28;20040;-88
2022/12/28 14:40:51;;;;;;;4.25;3.03;;;;;;;;;;5082686;28;20050;-88
2022/12/28 14:43:36;;;;;;;3.22;2.92;;;;;;;;;;5119376;28;20059;-87
2022/12/28 14:46:27;;;;;;;5.10;3.15;;;;;;;;;;5101776;28;20052;-87
2022/12/28 14:48:53;;;;;;;5.10;3.45;;;;;;;;;;5102513;28;20134;-87
2022/12/28 14:51:19;;;;;;;7.30;4.18;;;;;;;;;;5120103;28;20491;-87
2022/12/28 14:54:03;;;;;;;4.35;2.83;;;;;;;;;;5106233;28;20056;-88
2022/12/28 14:56:32;;;;;;;3.92;3.00;;;;;;;;;;5100744;28;20051;-90
2022/12/28 14:58:59;;;;;;;3.47;2.90;;;;;;;;;;5098586;28;20055;-89
2022/12/28 15:01:38;;;;;;;4.90;3.17;;;;;;;;;;5116632;28;20039;-88
2022/12/28 15:04:05;;;;;;;6.20;2.70;;;;;;;;;;5116201;28;20419;-88
2022/12/28 15:06:31;;;;;;;6.50;3.25;;;;;;;;;;5081984;28;20063;-88
2022/12/28 15:08:58;;;;;;;8.02;4.13;;;;;;;;;;5115671;28;20079;-87
2022/12/28 15:11:25;;;;;;;7.15;3.45;;;;;;;;;;5080652;28;20052;-87
2022/12/28 15:13:52;;;;;;;9.07;3.53;;;;;;;;;;5097682;28;20058;-88
2022/12/28 15:16:19;;;;;;;5.72;2.83;;;;;;;;;;5081499;28;20130;-88
2022/12/28 15:18:45;;;;;;;7.25;4.15;;;;;;;;;;5097596;28;20052;-87
2022/12/28 15:21:16;;;;;;;5.82;4.35;;;;;;;;;;5098499;28;20134;-87